createdAt,value
2023-05-08T00:01:07.265Z,99.90
2023-05-08T00:04:10.635Z,99.90
2023-05-08T00:07:13.953Z,99.90
2023-05-08T00:10:17.084Z,99.90
2023-05-08T00:13:23.954Z,99.90
2023-05-08T00:16:27.395Z,99.90
2023-05-08T00:19:30.561Z,99.90
2023-05-08T00:22:33.656Z,99.90
2023-05-08T00:25:36.807Z,99.90
2023-05-08T00:28:41.275Z,99.90
2023-05-08T00:31:44.429Z,99.90
2023-05-08T00:34:50.536Z,99.90
2023-05-08T00:37:53.777Z,99.90
2023-05-08T00:40:56.886Z,99.90
2023-05-08T00:44:01.310Z,99.90
2023-05-08T00:47:04.524Z,99.90
2023-05-08T00:50:08.733Z,99.90
2023-05-08T00:53:13.756Z,99.90
2023-05-08T00:56:19.966Z,99.90
2023-05-08T00:59:25.931Z,99.90
2023-05-08T01:02:31.474Z,99.90
2023-05-08T01:05:34.976Z,99.90
2023-05-08T01:08:38.107Z,99.90
2023-05-08T01:11:48.789Z,99.90
2023-05-08T01:15:03.174Z,99.90
2023-05-08T01:18:16.205Z,99.90
2023-05-08T01:21:27.314Z,99.90
2023-05-08T01:24:48.501Z,99.90
2023-05-08T01:28:09.656Z,99.90
2023-05-08T01:31:26.108Z,99.90
2023-05-08T01:34:34.147Z,99.90
2023-05-08T01:37:46.005Z,99.90
2023-05-08T01:40:54.638Z,99.90
2023-05-08T01:44:08.985Z,99.90
2023-05-08T01:47:13.393Z,99.90
2023-05-08T01:50:22.072Z,99.90
2023-05-08T01:53:29.799Z,99.90
2023-05-08T01:56:34.103Z,99.90
2023-05-08T01:59:40.027Z,99.90
2023-05-08T02:02:45.041Z,99.90
2023-05-08T02:05:52.121Z,99.90
2023-05-08T02:08:57.264Z,99.90
2023-05-08T02:12:03.012Z,99.90
2023-05-08T02:15:09.025Z,99.90
2023-05-08T02:18:13.991Z,99.90
2023-05-08T02:21:19.953Z,99.90
2023-05-08T02:24:25.246Z,99.90
2023-05-08T02:27:30.255Z,99.90
2023-05-08T02:30:34.902Z,99.90
2023-05-08T02:33:39.787Z,99.90
2023-05-08T02:36:44.766Z,99.90
2023-05-08T02:39:49.330Z,99.90
2023-05-08T02:42:52.563Z,99.90
2023-05-08T02:46:12.170Z,99.90
2023-05-08T02:49:26.532Z,99.90
2023-05-08T02:52:34.194Z,99.90
2023-05-08T02:55:49.419Z,99.90
2023-05-08T02:59:01.001Z,99.90
2023-05-08T03:02:09.685Z,99.90
2023-05-08T03:05:18.133Z,99.90
2023-05-08T03:08:27.161Z,99.90
2023-05-08T03:11:38.088Z,99.90
2023-05-08T03:14:46.547Z,99.90
2023-05-08T03:17:54.096Z,99.90
2023-05-08T03:21:00.555Z,99.90
2023-05-08T03:24:07.287Z,99.90
2023-05-08T03:27:11.093Z,99.90
2023-05-08T03:30:15.836Z,99.90
2023-05-08T03:33:19.266Z,99.90
2023-05-08T03:36:24.976Z,99.90
2023-05-08T03:39:29.441Z,99.90
2023-05-08T03:42:33.408Z,99.90
2023-05-08T03:45:37.872Z,99.90
2023-05-08T03:48:42.329Z,99.90
2023-05-08T03:51:46.436Z,99.90
2023-05-08T03:54:50.941Z,99.90
2023-05-08T03:58:00.831Z,99.90
2023-05-08T04:01:09.477Z,99.90
2023-05-08T04:04:18.106Z,99.90
2023-05-08T04:07:28.975Z,99.90
2023-05-08T04:10:42.337Z,99.90
2023-05-08T04:13:51.422Z,99.90
2023-05-08T04:17:10.989Z,99.90
2023-05-08T04:20:18.403Z,99.90
2023-05-08T04:23:24.189Z,99.90
2023-05-08T04:26:29.417Z,99.90
2023-05-08T04:29:34.177Z,99.90
2023-05-08T04:32:40.262Z,99.90
2023-05-08T04:35:46.060Z,99.90
2023-05-08T04:38:49.157Z,99.90
2023-05-08T04:41:55.729Z,99.90
2023-05-08T04:44:58.851Z,99.90
2023-05-08T04:48:01.944Z,99.90
2023-05-08T04:51:05.478Z,99.90
2023-05-08T04:54:08.864Z,99.90
2023-05-08T04:57:13.289Z,99.90
2023-05-08T05:00:17.352Z,99.90
2023-05-08T05:03:20.434Z,99.90
2023-05-08T05:06:23.710Z,99.90
2023-05-08T05:09:26.807Z,99.90
2023-05-08T05:12:31.231Z,99.90
2023-05-08T05:15:34.354Z,99.90
2023-05-08T05:18:37.558Z,99.90
2023-05-08T05:21:40.764Z,99.90
2023-05-08T05:24:43.839Z,99.90
2023-05-08T05:27:48.291Z,99.90
2023-05-08T05:30:51.470Z,99.90
2023-05-08T05:33:54.634Z,99.90
2023-05-08T05:36:57.758Z,99.90
2023-05-08T05:40:00.945Z,99.90
2023-05-08T05:43:05.380Z,99.90
2023-05-08T05:46:09.595Z,99.90
2023-05-08T05:49:12.974Z,99.90
2023-05-08T05:52:16.352Z,99.90
2023-05-08T05:55:19.521Z,99.90
2023-05-08T05:58:24.021Z,99.90
2023-05-08T06:01:29.148Z,99.90
2023-05-08T06:04:32.323Z,99.90
2023-05-08T06:07:35.868Z,99.90
2023-05-08T06:10:39.038Z,99.90
2023-05-08T06:13:43.964Z,99.90
2023-05-08T06:16:47.196Z,99.90
2023-05-08T06:19:53.992Z,99.90
2023-05-08T06:22:57.076Z,99.90
2023-05-08T06:26:00.366Z,99.90
2023-05-08T06:29:04.817Z,99.90
2023-05-08T06:32:08.170Z,99.90
2023-05-08T06:35:12.392Z,99.90
2023-05-08T06:38:16.013Z,99.90
2023-05-08T06:41:19.226Z,99.90
2023-05-08T06:44:23.741Z,99.90
2023-05-08T06:47:26.961Z,99.90
2023-05-08T06:50:30.165Z,99.90
2023-05-08T06:53:33.253Z,99.90
2023-05-08T06:56:36.512Z,99.90
2023-05-08T06:59:41.041Z,99.90
2023-05-08T07:02:44.231Z,99.90
2023-05-08T07:05:47.309Z,99.90
2023-05-08T07:08:50.581Z,99.90
2023-05-08T07:11:54.776Z,99.90
2023-05-08T07:14:59.680Z,99.90
2023-05-08T07:18:05.387Z,99.90
2023-05-08T07:21:08.774Z,99.90
2023-05-08T07:24:11.884Z,99.90
2023-05-08T07:27:15.426Z,99.90
2023-05-08T07:30:20.033Z,99.90
2023-05-08T07:33:23.173Z,99.90
2023-05-08T07:36:26.488Z,99.90
2023-05-08T07:39:32.736Z,99.90
2023-05-08T07:42:40.490Z,99.90
2023-05-08T07:45:45.004Z,99.90
2023-05-08T07:48:48.113Z,99.90
2023-05-08T07:51:51.310Z,99.90
2023-05-08T07:54:54.418Z,99.90
2023-05-08T07:57:57.562Z,99.90
2023-05-08T08:01:02.311Z,99.90
2023-05-08T08:04:06.157Z,99.90
2023-05-08T08:07:09.366Z,99.90
2023-05-08T08:10:12.668Z,99.90
2023-05-08T08:13:15.831Z,99.90
2023-05-08T08:16:20.340Z,99.90
2023-05-08T08:19:23.561Z,99.90
2023-05-08T08:22:27.390Z,99.90
2023-05-08T08:25:30.716Z,99.90
2023-05-08T08:28:33.842Z,99.90
2023-05-08T08:31:38.323Z,99.90
2023-05-08T08:34:41.463Z,99.90
2023-05-08T08:37:44.568Z,99.90
2023-05-08T08:40:47.765Z,99.90
2023-05-08T08:43:50.952Z,99.90
2023-05-08T08:46:56.142Z,99.90
2023-05-08T08:50:03.913Z,99.90
2023-05-08T08:53:12.352Z,99.90
2023-05-08T08:56:17.502Z,99.90
2023-05-08T08:59:21.898Z,99.90
2023-05-08T09:02:27.981Z,99.90
2023-05-08T09:05:31.670Z,99.90
2023-05-08T09:08:35.792Z,99.90
2023-05-08T09:11:39.906Z,99.90
2023-05-08T09:14:43.240Z,99.90
2023-05-08T09:17:47.825Z,99.90
2023-05-08T09:20:51.769Z,99.90
2023-05-08T09:24:01.649Z,99.90
2023-05-08T09:27:05.584Z,99.90
2023-05-08T09:30:10.315Z,99.90
2023-05-08T09:33:15.097Z,99.90
2023-05-08T09:36:28.076Z,99.90
2023-05-08T09:39:31.314Z,99.90
2023-05-08T09:42:39.504Z,99.90
2023-05-08T09:45:42.781Z,99.90
2023-05-08T09:48:47.351Z,99.90
2023-05-08T09:51:55.050Z,99.90
2023-05-08T09:55:00.104Z,99.90
2023-05-08T09:58:04.062Z,99.90
2023-05-08T10:01:07.569Z,99.90
2023-05-08T10:04:12.147Z,99.90
2023-05-08T10:07:15.322Z,99.90
2023-05-08T10:10:26.178Z,99.90
2023-05-08T10:13:29.731Z,99.90
2023-05-08T10:16:37.292Z,99.90
2023-05-08T10:19:46.700Z,99.90
2023-05-08T10:22:50.364Z,99.90
2023-05-08T10:26:00.056Z,99.90
2023-05-08T10:29:08.548Z,99.90
2023-05-08T10:32:14.339Z,99.90
2023-05-08T10:35:20.007Z,99.90
2023-05-08T10:38:24.378Z,99.90
2023-05-08T10:41:28.027Z,99.90
2023-05-08T10:44:32.913Z,99.90
2023-05-08T10:48:00.693Z,99.90
2023-05-08T10:51:10.752Z,99.90
2023-05-08T10:54:21.773Z,99.90
2023-05-08T10:57:24.940Z,99.90
2023-05-08T11:00:32.488Z,99.90
2023-05-08T11:03:41.833Z,99.90
2023-05-08T11:06:52.989Z,99.90
2023-05-08T11:09:56.241Z,99.90
2023-05-08T11:13:01.312Z,99.90
2023-05-08T11:16:06.552Z,99.90
2023-05-08T11:19:20.406Z,99.90
2023-05-08T11:22:28.632Z,99.90
2023-05-08T11:25:43.790Z,99.90
2023-05-08T11:28:58.553Z,99.90
2023-05-08T11:32:01.812Z,99.90
2023-05-08T11:35:11.216Z,99.90
2023-05-08T11:38:20.789Z,99.90
2023-05-08T11:41:25.680Z,99.90
2023-05-08T11:44:30.649Z,99.90
2023-05-08T11:47:44.159Z,99.90
2023-05-08T11:50:48.055Z,99.90
2023-05-08T11:53:52.942Z,99.90
2023-05-08T11:56:56.308Z,99.30
2023-05-08T11:59:59.570Z,99.00
2023-05-08T12:03:07.989Z,98.10
2023-05-08T12:06:11.314Z,98.10
2023-05-08T12:09:17.658Z,97.30
2023-05-08T12:12:20.766Z,96.30
2023-05-08T12:15:23.955Z,95.10
2023-05-08T12:18:29.381Z,95.10
2023-05-08T12:21:32.636Z,95.60
2023-05-08T12:24:37.396Z,95.50
2023-05-08T12:27:40.704Z,94.90
2023-05-08T12:30:43.942Z,94.10
2023-05-08T12:33:47.405Z,93.70
2023-05-08T12:36:51.410Z,93.30
2023-05-08T12:39:56.202Z,93.60
2023-05-08T12:43:02.202Z,93.80
2023-05-08T12:46:06.219Z,93.50
2023-05-08T12:49:12.962Z,93.40
2023-05-08T12:52:18.167Z,93.20
2023-05-08T12:55:27.899Z,93.20
2023-05-08T12:58:32.770Z,93.60
2023-05-08T13:01:35.981Z,92.80
2023-05-08T13:04:39.581Z,92.70
2023-05-08T13:07:42.885Z,92.70
2023-05-08T13:10:52.652Z,92.70
2023-05-08T13:13:55.840Z,93.90
2023-05-08T13:16:59.868Z,94.10
2023-05-08T13:20:05.922Z,94.60
2023-05-08T13:23:10.381Z,94.60
2023-05-08T13:26:14.865Z,94.60
2023-05-08T13:29:17.963Z,94.90
2023-05-08T13:32:21.165Z,94.60
2023-05-08T13:35:24.951Z,94.00
2023-05-08T13:38:28.133Z,93.80
2023-05-08T13:41:32.624Z,94.00
2023-05-08T13:44:35.738Z,93.80
2023-05-08T13:47:38.828Z,93.60
2023-05-08T13:50:41.916Z,94.00
2023-05-08T13:53:45.037Z,94.30
2023-05-08T13:56:49.932Z,94.70
2023-05-08T13:59:53.224Z,95.00
2023-05-08T14:02:56.563Z,95.00
2023-05-08T14:05:59.734Z,95.40
2023-05-08T14:09:02.852Z,95.40
2023-05-08T14:12:07.513Z,95.00
2023-05-08T14:15:13.792Z,95.40
2023-05-08T14:18:17.075Z,95.40
2023-05-08T14:21:20.222Z,95.20
2023-05-08T14:24:23.396Z,94.90
2023-05-08T14:27:27.974Z,95.20
2023-05-08T14:30:31.054Z,95.80
2023-05-08T14:33:34.164Z,96.00
2023-05-08T14:36:37.283Z,96.60
2023-05-08T14:39:40.417Z,97.20
2023-05-08T14:42:44.925Z,97.40
2023-05-08T14:45:48.206Z,97.50
2023-05-08T14:48:51.367Z,97.90
2023-05-08T14:51:54.531Z,98.40
2023-05-08T14:54:58.787Z,98.60
2023-05-08T14:58:03.406Z,98.60
2023-05-08T15:01:06.716Z,98.40
2023-05-08T15:04:10.778Z,98.20
2023-05-08T15:07:13.891Z,98.10
2023-05-08T15:10:17.389Z,97.90
2023-05-08T15:13:21.869Z,98.00
2023-05-08T15:16:25.009Z,98.10
2023-05-08T15:19:28.273Z,98.20
2023-05-08T15:22:31.472Z,98.00
2023-05-08T15:25:34.637Z,97.90
2023-05-08T15:28:41.323Z,97.70
2023-05-08T15:31:44.524Z,98.00
2023-05-08T15:34:47.764Z,98.20
2023-05-08T15:37:50.980Z,98.40
2023-05-08T15:40:54.267Z,98.30
2023-05-08T15:43:58.869Z,97.90
2023-05-08T15:47:02.733Z,98.00
2023-05-08T15:50:06.493Z,97.60
2023-05-08T15:53:09.598Z,97.50
2023-05-08T15:56:12.738Z,97.90
2023-05-08T15:59:17.182Z,98.50
2023-05-08T16:02:20.398Z,98.90
2023-05-08T16:05:23.656Z,99.00
2023-05-08T16:08:26.957Z,99.20
2023-05-08T16:11:31.788Z,99.40
2023-05-08T16:14:36.961Z,99.60
2023-05-08T16:17:40.143Z,99.50
2023-05-08T16:20:43.483Z,99.40
2023-05-08T16:23:47.036Z,99.60
2023-05-08T16:26:50.248Z,99.90
2023-05-08T16:29:54.721Z,99.90
2023-05-08T16:32:57.884Z,99.90
2023-05-08T16:36:01.105Z,99.90
2023-05-08T16:39:04.617Z,99.90
2023-05-08T16:42:07.821Z,99.90
2023-05-08T16:45:13.610Z,99.90
2023-05-08T16:48:20.187Z,99.90
2023-05-08T16:51:23.270Z,99.90
2023-05-08T16:54:26.420Z,99.90
2023-05-08T16:57:30.709Z,99.90
2023-05-08T17:00:35.703Z,99.90
2023-05-08T17:03:39.052Z,99.90
2023-05-08T17:06:42.292Z,99.90
2023-05-08T17:09:48.412Z,99.90
2023-05-08T17:12:54.020Z,99.90
2023-05-08T17:15:59.215Z,99.90
2023-05-08T17:19:02.315Z,99.90
2023-05-08T17:22:05.463Z,99.90
2023-05-08T17:25:09.466Z,99.90
2023-05-08T17:28:12.612Z,99.90
2023-05-08T17:31:17.120Z,99.90
2023-05-08T17:34:20.328Z,99.90
2023-05-08T17:37:23.422Z,99.90
2023-05-08T17:40:28.862Z,99.90
2023-05-08T17:43:31.995Z,99.90
2023-05-08T17:46:36.675Z,99.90
2023-05-08T17:49:39.858Z,99.90
2023-05-08T17:52:43.027Z,99.90
2023-05-08T17:55:46.195Z,99.90
2023-05-08T17:58:49.367Z,99.90
2023-05-08T18:01:54.555Z,99.90
2023-05-08T18:04:57.829Z,99.90
2023-05-08T18:08:00.991Z,99.90
2023-05-08T18:11:04.134Z,99.90
2023-05-08T18:14:07.208Z,99.90
2023-05-08T18:17:15.463Z,99.90
2023-05-08T18:20:20.393Z,99.90
2023-05-08T18:23:23.757Z,99.90
2023-05-08T18:26:27.070Z,99.90
2023-05-08T18:29:30.950Z,99.90
2023-05-08T18:32:37.051Z,99.90
2023-05-08T18:35:40.300Z,99.90
2023-05-08T18:38:43.703Z,99.90
2023-05-08T18:41:47.003Z,99.90
2023-05-08T18:44:50.575Z,99.90
2023-05-08T18:47:57.525Z,99.90
2023-05-08T18:51:00.988Z,99.90
2023-05-08T18:54:04.079Z,99.90
2023-05-08T18:57:07.563Z,99.90
2023-05-08T19:00:12.268Z,99.90
2023-05-08T19:03:18.565Z,99.90
2023-05-08T19:06:22.199Z,99.90
2023-05-08T19:09:25.373Z,99.90
2023-05-08T19:12:28.508Z,99.90
2023-05-08T19:15:31.749Z,99.90
2023-05-08T19:18:36.510Z,99.90
2023-05-08T19:21:39.978Z,99.90
2023-05-08T19:24:43.769Z,99.90
2023-05-08T19:27:47.339Z,99.90
2023-05-08T19:30:50.478Z,99.90
2023-05-08T19:33:55.387Z,99.90
2023-05-08T19:36:58.664Z,99.90
2023-05-08T19:40:01.732Z,99.90
2023-05-08T19:43:05.400Z,99.90
2023-05-08T19:46:08.686Z,99.90
2023-05-08T19:49:14.403Z,99.90
2023-05-08T19:52:17.500Z,99.90
2023-05-08T19:55:20.585Z,99.90
2023-05-08T19:58:24.102Z,99.90
2023-05-08T20:01:27.362Z,99.90
2023-05-08T20:04:35.964Z,99.90
2023-05-08T20:07:45.490Z,99.90
2023-05-08T20:10:49.119Z,99.90
2023-05-08T20:13:52.304Z,99.90
2023-05-08T20:16:55.482Z,99.90
2023-05-08T20:19:59.995Z,99.90
2023-05-08T20:23:04.551Z,99.90
2023-05-08T20:26:08.599Z,99.90
2023-05-08T20:29:11.790Z,99.90
2023-05-08T20:32:16.437Z,99.90
2023-05-08T20:35:21.394Z,99.90
2023-05-08T20:38:24.536Z,99.90
2023-05-08T20:41:27.628Z,99.90
2023-05-08T20:44:33.610Z,99.90
2023-05-08T20:47:37.027Z,99.90
2023-05-08T20:50:41.609Z,99.90
2023-05-08T20:53:44.754Z,99.90
2023-05-08T20:56:47.830Z,99.90
2023-05-08T20:59:50.918Z,99.90
2023-05-08T21:02:54.015Z,99.90
2023-05-08T21:05:58.549Z,99.90
2023-05-08T21:09:01.624Z,99.90
2023-05-08T21:12:05.156Z,99.90
2023-05-08T21:15:09.437Z,99.90
2023-05-08T21:18:12.618Z,99.90
2023-05-08T21:21:18.059Z,99.90
2023-05-08T21:24:21.782Z,99.90
2023-05-08T21:27:25.985Z,99.90
2023-05-08T21:30:29.118Z,99.90
2023-05-08T21:33:33.630Z,99.90
2023-05-08T21:36:38.121Z,99.90
2023-05-08T21:39:42.010Z,99.90
2023-05-08T21:42:45.085Z,99.90
2023-05-08T21:45:48.236Z,99.90
2023-05-08T21:48:51.549Z,99.90
2023-05-08T21:51:57.926Z,99.90
2023-05-08T21:55:01.064Z,99.90
2023-05-08T21:58:04.196Z,99.90
2023-05-08T22:01:07.412Z,99.90
2023-05-08T22:04:10.501Z,99.90
2023-05-08T22:07:15.007Z,99.90
2023-05-08T22:10:18.293Z,99.90
2023-05-08T22:13:21.504Z,99.90
2023-05-08T22:16:24.811Z,99.90
2023-05-08T22:19:28.461Z,99.90
2023-05-08T22:22:32.975Z,99.90
2023-05-08T22:25:36.120Z,99.90
2023-05-08T22:28:39.256Z,99.90
2023-05-08T22:31:42.455Z,99.90
2023-05-08T22:34:46.510Z,99.90
2023-05-08T22:37:51.183Z,99.90
2023-05-08T22:40:57.485Z,99.90
2023-05-08T22:44:00.914Z,99.90
2023-05-08T22:47:04.328Z,99.90
2023-05-08T22:50:09.334Z,99.90
2023-05-08T22:53:13.891Z,99.90
2023-05-08T22:56:16.978Z,99.90
2023-05-08T22:59:20.095Z,99.90
2023-05-08T23:02:24.391Z,99.90
2023-05-08T23:05:27.539Z,99.90
2023-05-08T23:08:32.112Z,99.90
2023-05-08T23:11:35.250Z,99.90
2023-05-08T23:14:38.490Z,99.90
2023-05-08T23:17:41.720Z,99.90
2023-05-08T23:20:44.773Z,99.90
2023-05-08T23:23:49.225Z,99.90
2023-05-08T23:26:52.695Z,99.90
2023-05-08T23:29:55.811Z,99.90
2023-05-08T23:32:58.954Z,99.90
2023-05-08T23:36:02.063Z,99.90
2023-05-08T23:39:07.172Z,99.90
2023-05-08T23:42:10.391Z,99.90
2023-05-08T23:45:13.754Z,99.90
2023-05-08T23:48:17.866Z,99.90
2023-05-08T23:51:21.036Z,99.90
2023-05-08T23:54:25.704Z,99.90
2023-05-08T23:57:28.807Z,99.90
